createdAt,value
2018-12-06T00:02:24.493Z,6.70
2018-12-06T00:04:52.532Z,6.55
2018-12-06T00:07:22.182Z,6.71
2018-12-06T00:09:49.725Z,6.67
2018-12-06T00:12:20.614Z,6.70
2018-12-06T00:14:49.521Z,6.69
2018-12-06T00:17:19.075Z,6.70
2018-12-06T00:19:47.723Z,6.83
2018-12-06T00:22:16.686Z,6.82
2018-12-06T00:24:46.924Z,6.69
2018-12-06T00:27:16.108Z,6.72
2018-12-06T00:29:49.559Z,6.75
2018-12-06T00:32:17.379Z,6.76
2018-12-06T00:34:45.065Z,6.73
2018-12-06T00:37:13.400Z,6.75
2018-12-06T00:39:41.184Z,6.81
2018-12-06T00:42:11.595Z,6.85
2018-12-06T00:44:40.798Z,6.79
2018-12-06T00:47:11.284Z,6.82
2018-12-06T00:49:39.050Z,6.83
2018-12-06T00:52:08.555Z,6.84
2018-12-06T00:54:36.396Z,6.83
2018-12-06T00:57:05.467Z,6.91
2018-12-06T00:59:33.178Z,6.96
2018-12-06T01:02:01.147Z,6.89
2018-12-06T01:04:29.452Z,6.89
2018-12-06T01:06:58.728Z,6.87
2018-12-06T01:09:26.918Z,6.84
2018-12-06T01:11:57.699Z,6.89
2018-12-06T01:14:45.308Z,6.95
2018-12-06T01:17:15.210Z,6.94
2018-12-06T01:19:44.485Z,6.98
2018-12-06T01:22:13.974Z,6.96
2018-12-06T01:24:42.936Z,6.95
2018-12-06T01:27:12.071Z,7.00
2018-12-06T01:29:42.331Z,7.00
2018-12-06T01:32:11.879Z,6.99
2018-12-06T01:34:40.688Z,6.92
2018-12-06T01:37:11.823Z,6.98
2018-12-06T01:39:41.382Z,6.99
2018-12-06T01:42:09.023Z,6.95
2018-12-06T01:44:36.860Z,7.01
2018-12-06T01:47:04.391Z,6.92
2018-12-06T01:49:31.874Z,6.96
2018-12-06T01:51:59.402Z,7.04
2018-12-06T01:54:26.895Z,7.07
2018-12-06T01:56:54.423Z,7.03
2018-12-06T01:59:21.924Z,7.03
2018-12-06T02:01:49.456Z,7.05
2018-12-06T02:04:16.958Z,7.07
2018-12-06T02:06:44.489Z,7.03
2018-12-06T02:09:11.988Z,7.07
2018-12-06T02:11:39.608Z,7.07
2018-12-06T02:14:07.286Z,7.09
2018-12-06T02:16:34.820Z,7.07
2018-12-06T02:19:02.322Z,7.00
2018-12-06T02:21:29.851Z,7.00
2018-12-06T02:23:57.354Z,7.01
2018-12-06T02:26:24.879Z,7.10
2018-12-06T02:28:52.375Z,7.09
2018-12-06T02:31:20.392Z,7.05
2018-12-06T02:33:47.882Z,7.10
2018-12-06T02:36:15.412Z,7.07
2018-12-06T02:38:42.907Z,7.12
2018-12-06T02:41:10.734Z,7.15
2018-12-06T02:43:38.227Z,7.15
2018-12-06T02:46:05.768Z,6.97
2018-12-06T02:48:33.267Z,7.19
2018-12-06T02:51:00.799Z,7.11
2018-12-06T02:53:28.308Z,7.19
2018-12-06T02:55:55.843Z,7.16
2018-12-06T02:58:23.339Z,7.10
2018-12-06T03:00:50.831Z,7.16
2018-12-06T03:03:18.443Z,7.22
2018-12-06T03:05:45.984Z,7.24
2018-12-06T03:08:13.517Z,7.23
2018-12-06T03:10:41.005Z,7.27
2018-12-06T03:13:08.526Z,7.22
2018-12-06T03:15:36.018Z,7.22
2018-12-06T03:18:03.548Z,7.21
2018-12-06T03:20:31.041Z,7.28
2018-12-06T03:22:58.584Z,7.33
2018-12-06T03:25:26.079Z,7.34
2018-12-06T03:27:53.617Z,7.40
2018-12-06T03:30:21.118Z,7.38
2018-12-06T03:32:48.688Z,7.41
2018-12-06T03:35:16.188Z,7.39
2018-12-06T03:37:43.717Z,7.43
2018-12-06T03:40:11.306Z,7.40
2018-12-06T03:42:38.827Z,7.41
2018-12-06T03:45:06.415Z,7.43
2018-12-06T03:47:33.947Z,7.36
2018-12-06T03:50:01.461Z,7.48
2018-12-06T03:52:29.092Z,7.52
2018-12-06T03:54:56.594Z,7.57
2018-12-06T03:57:24.119Z,7.61
2018-12-06T03:59:51.613Z,7.64
2018-12-06T04:02:19.140Z,7.64
2018-12-06T04:04:46.633Z,7.67
2018-12-06T04:07:14.176Z,7.64
2018-12-06T04:09:41.667Z,7.63
2018-12-06T04:12:09.196Z,7.65
2018-12-06T04:14:36.727Z,7.64
2018-12-06T04:17:04.264Z,7.67
2018-12-06T04:19:31.758Z,7.64
2018-12-06T04:21:59.283Z,7.71
2018-12-06T04:24:26.786Z,7.69
2018-12-06T04:26:54.321Z,7.67
2018-12-06T04:29:21.821Z,7.73
2018-12-06T04:31:49.435Z,7.71
2018-12-06T04:34:16.934Z,7.76
2018-12-06T04:36:44.548Z,7.69
2018-12-06T04:39:12.078Z,7.75
2018-12-06T04:41:39.587Z,7.76
2018-12-06T04:44:07.385Z,7.83
2018-12-06T04:46:34.884Z,7.82
2018-12-06T04:49:02.412Z,7.83
2018-12-06T04:51:29.907Z,7.82
2018-12-06T04:53:57.437Z,7.86
2018-12-06T04:56:24.946Z,7.86
2018-12-06T04:58:52.480Z,7.86
2018-12-06T05:01:19.986Z,7.80
2018-12-06T05:03:47.519Z,7.81
2018-12-06T05:06:15.204Z,7.88
2018-12-06T05:08:42.745Z,7.85
2018-12-06T05:11:10.235Z,7.83
2018-12-06T05:13:37.763Z,7.87
2018-12-06T05:16:05.263Z,7.89
2018-12-06T05:18:32.823Z,7.92
2018-12-06T05:21:00.323Z,7.92
2018-12-06T05:23:27.980Z,7.96
2018-12-06T05:25:55.472Z,7.93
2018-12-06T05:28:22.995Z,7.93
2018-12-06T05:30:50.499Z,7.94
2018-12-06T05:33:18.038Z,7.95
2018-12-06T05:35:45.538Z,7.94
2018-12-06T05:38:13.166Z,7.98
2018-12-06T05:40:40.722Z,7.96
2018-12-06T05:43:08.255Z,7.95
2018-12-06T05:45:35.757Z,8.00
2018-12-06T05:48:03.279Z,8.04
2018-12-06T05:50:30.766Z,8.02
2018-12-06T05:52:58.296Z,8.01
2018-12-06T05:55:26.186Z,8.02
2018-12-06T05:57:53.755Z,8.03
2018-12-06T06:00:21.361Z,8.08
2018-12-06T06:02:48.893Z,8.06
2018-12-06T06:05:16.390Z,7.98
2018-12-06T06:07:43.914Z,8.07
2018-12-06T06:10:11.411Z,8.08
2018-12-06T06:12:39.141Z,8.08
2018-12-06T06:15:06.719Z,8.04
2018-12-06T06:17:34.214Z,8.02
2018-12-06T06:20:01.837Z,8.11
2018-12-06T06:22:29.390Z,8.16
2018-12-06T06:24:56.925Z,8.08
2018-12-06T06:30:27.451Z,8.22
2018-12-06T06:32:54.975Z,8.19
2018-12-06T06:35:22.575Z,8.19
2018-12-06T06:37:50.089Z,8.25
2018-12-06T06:40:17.622Z,8.24
2018-12-06T06:42:45.132Z,8.21
2018-12-06T06:45:12.709Z,8.24
2018-12-06T06:47:40.208Z,8.19
2018-12-06T06:50:07.755Z,8.17
2018-12-06T06:52:35.264Z,8.20
2018-12-06T06:55:02.799Z,8.16
2018-12-06T06:57:30.306Z,8.22
2018-12-06T06:59:57.844Z,8.20
2018-12-06T07:02:25.342Z,8.21
2018-12-06T07:04:52.872Z,8.24
2018-12-06T07:07:20.364Z,8.19
2018-12-06T07:09:47.908Z,8.24
2018-12-06T07:12:18.107Z,8.28
2018-12-06T07:14:45.874Z,8.32
2018-12-06T07:17:13.360Z,8.33
2018-12-06T07:19:40.898Z,8.31
2018-12-06T07:22:08.393Z,8.32
2018-12-06T07:24:35.924Z,8.40
2018-12-06T07:27:03.424Z,8.41
2018-12-06T07:29:30.953Z,8.43
2018-12-06T07:31:58.447Z,8.45
2018-12-06T07:34:25.987Z,8.60
2018-12-06T07:36:53.487Z,8.61
2018-12-06T07:39:21.019Z,8.64
2018-12-06T07:41:48.514Z,8.70
2018-12-06T07:44:16.046Z,8.64
2018-12-06T07:46:43.669Z,8.61
2018-12-06T07:49:11.215Z,8.63
2018-12-06T07:51:38.711Z,8.59
2018-12-06T07:54:06.250Z,8.53
2018-12-06T07:56:33.743Z,8.53
2018-12-06T07:59:01.282Z,8.58
2018-12-06T08:01:28.903Z,8.62
2018-12-06T08:03:57.138Z,8.66
2018-12-06T08:06:25.164Z,8.64
2018-12-06T08:08:52.691Z,8.66
2018-12-06T08:11:20.189Z,8.70
2018-12-06T08:13:47.720Z,8.71
2018-12-06T08:16:15.402Z,8.72
2018-12-06T08:18:42.914Z,8.75
2018-12-06T08:21:10.532Z,8.80
2018-12-06T08:23:38.079Z,8.80
2018-12-06T08:26:05.613Z,8.83
2018-12-06T08:28:33.117Z,8.85
2018-12-06T08:31:00.672Z,8.90
2018-12-06T08:33:28.290Z,8.92
2018-12-06T08:35:55.825Z,8.98
2018-12-06T08:38:23.319Z,8.93
2018-12-06T08:40:50.852Z,8.95
2018-12-06T08:43:18.359Z,8.95
2018-12-06T08:45:45.892Z,8.99
2018-12-06T08:48:13.388Z,9.04
2018-12-06T08:50:40.945Z,9.10
2018-12-06T08:53:08.466Z,9.14
2018-12-06T08:55:36.009Z,9.22
2018-12-06T08:58:05.372Z,9.28
2018-12-06T09:00:33.139Z,9.34
2018-12-06T09:03:00.637Z,9.39
2018-12-06T09:05:28.176Z,9.40
2018-12-06T09:07:56.214Z,9.46
2018-12-06T09:10:23.814Z,9.51
2018-12-06T09:12:51.307Z,9.53
2018-12-06T09:15:18.975Z,9.58
2018-12-06T09:17:46.558Z,9.61
2018-12-06T09:20:14.153Z,9.68
2018-12-06T09:22:41.647Z,9.75
2018-12-06T09:25:09.183Z,9.78
2018-12-06T09:27:36.681Z,9.79
2018-12-06T09:30:05.408Z,9.84
2018-12-06T09:32:32.903Z,9.87
2018-12-06T09:35:00.440Z,9.95
2018-12-06T09:37:27.937Z,9.97
2018-12-06T09:39:57.101Z,10.03
2018-12-06T09:42:24.685Z,10.07
2018-12-06T09:44:52.347Z,10.10
2018-12-06T09:47:19.863Z,10.13
2018-12-06T09:49:47.514Z,10.21
2018-12-06T09:52:15.023Z,10.26
2018-12-06T09:54:43.191Z,10.30
2018-12-06T09:57:10.899Z,10.32
2018-12-06T09:59:38.414Z,10.34
2018-12-06T10:02:05.984Z,10.39
2018-12-06T10:04:33.606Z,10.42
2018-12-06T10:07:01.148Z,10.48
2018-12-06T10:09:28.649Z,10.52
2018-12-06T10:11:56.192Z,10.54
2018-12-06T10:14:23.695Z,10.62
2018-12-06T10:16:51.329Z,10.77
2018-12-06T10:19:18.836Z,10.78
2018-12-06T10:21:46.371Z,10.84
2018-12-06T10:24:13.872Z,10.87
2018-12-06T10:26:41.407Z,10.90
2018-12-06T10:29:08.900Z,10.85
2018-12-06T10:31:36.439Z,10.89
2018-12-06T10:34:03.933Z,10.91
2018-12-06T10:36:31.468Z,10.91
2018-12-06T10:38:58.972Z,10.96
2018-12-06T10:41:26.515Z,10.99
2018-12-06T10:43:54.032Z,10.97
2018-12-06T10:46:22.465Z,11.03
2018-12-06T10:48:50.051Z,11.09
2018-12-06T10:51:29.437Z,11.08
2018-12-06T10:53:56.939Z,11.09
2018-12-06T10:56:24.486Z,11.07
2018-12-06T10:58:51.989Z,11.04
2018-12-06T11:01:21.522Z,11.01
2018-12-06T11:04:04.922Z,11.03
2018-12-06T11:06:32.511Z,11.01
2018-12-06T11:09:00.021Z,11.05
2018-12-06T11:11:27.605Z,11.05
2018-12-06T11:13:55.104Z,11.06
2018-12-06T11:16:22.672Z,11.06
2018-12-06T11:18:50.182Z,11.07
2018-12-06T11:21:17.702Z,11.08
2018-12-06T11:23:45.252Z,11.10
2018-12-06T11:26:12.745Z,11.23
2018-12-06T11:28:40.307Z,11.30
2018-12-06T11:31:07.811Z,11.31
2018-12-06T11:33:35.349Z,11.36
2018-12-06T11:36:02.856Z,11.34
2018-12-06T11:38:30.386Z,11.33
2018-12-06T11:40:57.872Z,11.30
2018-12-06T11:43:25.743Z,11.25
2018-12-06T11:45:53.240Z,11.23
2018-12-06T11:48:26.926Z,11.17
2018-12-06T11:50:50.299Z,11.15
2018-12-06T11:53:19.319Z,11.15
2018-12-06T11:55:46.956Z,11.14
2018-12-06T11:58:14.484Z,11.13
2018-12-06T12:00:41.984Z,11.16
2018-12-06T12:03:09.536Z,11.19
2018-12-06T12:05:37.054Z,11.19
2018-12-06T12:08:04.599Z,11.26
2018-12-06T12:10:32.098Z,11.31
2018-12-06T12:12:59.635Z,11.28
2018-12-06T12:15:27.138Z,11.24
2018-12-06T12:17:54.678Z,11.22
2018-12-06T12:20:22.182Z,11.22
2018-12-06T12:22:49.738Z,11.26
2018-12-06T12:25:17.244Z,11.28
2018-12-06T12:27:44.779Z,11.31
2018-12-06T12:30:12.346Z,11.40
2018-12-06T12:32:43.791Z,11.44
2018-12-06T12:35:11.946Z,11.46
2018-12-06T12:37:39.544Z,11.51
2018-12-06T12:40:09.134Z,11.49
2018-12-06T12:42:36.741Z,11.53
2018-12-06T12:45:05.504Z,11.55
2018-12-06T12:47:34.674Z,11.56
2018-12-06T12:50:03.984Z,11.55
2018-12-06T12:52:34.564Z,11.58
2018-12-06T12:55:02.211Z,11.65
2018-12-06T12:57:29.757Z,11.68
2018-12-06T12:59:57.258Z,11.71
2018-12-06T13:02:24.800Z,11.73
2018-12-06T13:04:52.633Z,11.72
2018-12-06T13:07:20.147Z,11.73
2018-12-06T13:09:47.697Z,11.74
2018-12-06T13:12:15.241Z,11.74
2018-12-06T13:14:42.776Z,11.70
2018-12-06T13:17:10.288Z,11.70
2018-12-06T13:19:37.811Z,11.69
2018-12-06T13:22:05.663Z,11.66
2018-12-06T13:24:33.222Z,11.64
2018-12-06T13:27:00.713Z,11.64
2018-12-06T13:29:28.234Z,11.68
2018-12-06T13:31:55.731Z,11.68
2018-12-06T13:34:23.261Z,11.69
2018-12-06T13:36:50.763Z,11.68
2018-12-06T13:39:18.327Z,11.66
2018-12-06T13:41:45.823Z,11.67
2018-12-06T13:44:14.515Z,11.68
2018-12-06T13:46:42.326Z,11.71
2018-12-06T13:49:09.851Z,11.67
2018-12-06T13:51:37.436Z,11.67
2018-12-06T13:54:04.993Z,11.69
2018-12-06T13:56:32.483Z,11.71
2018-12-06T13:59:00.016Z,11.72
2018-12-06T14:01:27.640Z,11.72
2018-12-06T14:03:55.717Z,11.75
2018-12-06T14:06:23.264Z,11.75
2018-12-06T14:08:50.889Z,11.75
2018-12-06T14:11:18.778Z,11.72
2018-12-06T14:13:46.307Z,11.71
2018-12-06T14:16:13.804Z,11.69
2018-12-06T14:18:41.336Z,11.75
2018-12-06T14:21:09.495Z,11.79
2018-12-06T14:23:37.119Z,11.81
2018-12-06T14:26:06.503Z,11.80
2018-12-06T14:28:35.352Z,11.77
2018-12-06T14:31:03.485Z,11.78
2018-12-06T14:33:31.246Z,11.79
2018-12-06T14:35:58.774Z,11.75
2018-12-06T14:38:26.324Z,11.78
2018-12-06T14:40:53.903Z,11.76
2018-12-06T14:43:21.754Z,11.69
2018-12-06T14:45:49.636Z,11.68
2018-12-06T14:48:17.710Z,11.66
2018-12-06T14:50:45.248Z,11.64
2018-12-06T14:53:12.763Z,11.67
2018-12-06T14:55:40.296Z,11.68
2018-12-06T14:58:07.797Z,11.67
2018-12-06T15:00:35.328Z,11.69
2018-12-06T15:03:02.828Z,11.69
2018-12-06T15:05:30.364Z,11.68
2018-12-06T15:07:57.859Z,11.65
2018-12-06T15:10:25.395Z,11.61
2018-12-06T15:12:52.951Z,11.56
2018-12-06T15:15:20.591Z,11.61
2018-12-06T15:17:48.092Z,11.55
2018-12-06T15:20:15.753Z,11.52
2018-12-06T15:22:43.390Z,11.54
2018-12-06T15:25:11.168Z,11.54
2018-12-06T15:27:38.851Z,11.51
2018-12-06T15:32:42.985Z,11.51
2018-12-06T15:35:10.613Z,11.52
2018-12-06T15:37:38.112Z,11.49
2018-12-06T15:40:06.037Z,11.52
2018-12-06T15:42:33.562Z,11.51
2018-12-06T15:45:01.091Z,11.64
2018-12-06T15:47:28.589Z,11.67
2018-12-06T15:49:56.127Z,11.71
2018-12-06T15:52:23.623Z,11.67
2018-12-06T15:54:51.349Z,11.63
2018-12-06T15:57:18.898Z,11.62
2018-12-06T15:59:46.518Z,11.71
2018-12-06T16:02:14.030Z,11.72
2018-12-06T16:04:41.589Z,11.74
2018-12-06T16:07:09.179Z,11.78
2018-12-06T16:09:36.704Z,11.76
2018-12-06T16:12:04.199Z,11.73
2018-12-06T16:14:31.743Z,11.71
2018-12-06T16:16:59.291Z,11.61
2018-12-06T16:19:26.827Z,11.56
2018-12-06T16:21:54.355Z,11.56
2018-12-06T16:24:21.855Z,11.49
2018-12-06T16:26:49.383Z,11.46
2018-12-06T16:29:16.910Z,11.39
2018-12-06T16:31:44.446Z,11.38
2018-12-06T16:34:12.033Z,11.43
2018-12-06T16:36:39.588Z,11.46
2018-12-06T16:39:12.960Z,11.43
2018-12-06T16:41:40.490Z,11.45
2018-12-06T16:44:09.887Z,11.51
2018-12-06T16:46:42.120Z,11.54
2018-12-06T16:49:13.637Z,11.60
2018-12-06T16:51:44.784Z,11.55
2018-12-06T16:54:12.500Z,11.64
2018-12-06T16:56:40.047Z,11.57
2018-12-06T16:59:07.537Z,11.55
2018-12-06T17:01:35.413Z,11.54
2018-12-06T17:04:02.899Z,11.50
2018-12-06T17:06:30.432Z,11.56
2018-12-06T17:08:57.944Z,11.56
2018-12-06T17:11:25.492Z,11.55
2018-12-06T17:13:52.987Z,11.52
2018-12-06T17:16:20.520Z,11.59
2018-12-06T17:21:25.056Z,11.53
2018-12-06T17:23:52.573Z,11.61
2018-12-06T17:26:22.863Z,11.53
2018-12-06T17:28:50.564Z,11.54
2018-12-06T17:31:18.087Z,11.58
2018-12-06T17:33:45.603Z,11.60
2018-12-06T17:36:13.140Z,11.58
2018-12-06T17:38:40.645Z,11.54
2018-12-06T17:41:08.175Z,11.54
2018-12-06T17:43:35.762Z,11.55
2018-12-06T17:46:03.295Z,11.56
2018-12-06T17:48:31.120Z,11.58
2018-12-06T17:50:58.707Z,11.52
2018-12-06T17:53:26.198Z,11.45
2018-12-06T17:55:53.921Z,11.40
2018-12-06T17:58:21.431Z,11.37
2018-12-06T18:00:48.968Z,11.33
2018-12-06T18:03:16.479Z,11.45
2018-12-06T18:05:43.985Z,11.30
2018-12-06T18:08:16.427Z,11.42
2018-12-06T18:13:24.715Z,11.36
2018-12-06T18:15:58.996Z,11.51
2018-12-06T18:21:12.453Z,11.39
2018-12-06T18:23:45.257Z,11.33
2018-12-06T18:26:14.322Z,11.42
2018-12-06T18:28:42.162Z,11.45
2018-12-06T18:31:12.598Z,11.37
2018-12-06T18:33:43.788Z,11.46
2018-12-06T18:36:13.848Z,11.50
2018-12-06T18:38:41.730Z,11.57
2018-12-06T18:41:09.892Z,11.62
2018-12-06T18:43:38.850Z,11.59
2018-12-06T18:46:08.031Z,11.53
2018-12-06T18:48:39.648Z,11.51
2018-12-06T18:51:09.472Z,11.61
2018-12-06T18:53:41.095Z,11.51
2018-12-06T18:56:14.680Z,11.49
2018-12-06T18:58:46.120Z,11.54
2018-12-06T19:01:17.600Z,11.51
2018-12-06T19:03:45.370Z,11.51
2018-12-06T19:06:12.885Z,11.49
2018-12-06T19:08:40.417Z,11.47
2018-12-06T19:11:07.917Z,11.38
2018-12-06T19:13:35.494Z,11.43
2018-12-06T19:16:03.001Z,11.39
2018-12-06T19:18:30.528Z,11.43
2018-12-06T19:20:58.698Z,11.45
2018-12-06T19:23:27.403Z,11.50
2018-12-06T19:25:56.015Z,11.42
2018-12-06T19:28:23.543Z,11.38
2018-12-06T19:30:52.475Z,11.37
2018-12-06T19:33:20.050Z,11.40
2018-12-06T19:35:47.558Z,11.38
2018-12-06T19:38:15.087Z,11.42
2018-12-06T19:40:42.920Z,11.52
2018-12-06T19:43:11.288Z,11.52
2018-12-06T19:45:39.008Z,11.40
2018-12-06T19:48:06.534Z,11.38
2018-12-06T19:50:34.120Z,11.34
2018-12-06T19:53:01.644Z,11.30
2018-12-06T19:55:29.138Z,11.31
2018-12-06T19:57:57.734Z,11.36
2018-12-06T20:00:25.298Z,11.34
2018-12-06T20:02:53.385Z,11.29
2018-12-06T20:05:21.802Z,11.34
2018-12-06T20:07:50.279Z,11.34
2018-12-06T20:13:01.664Z,11.32
2018-12-06T20:15:29.268Z,11.34
2018-12-06T20:17:56.839Z,11.39
2018-12-06T20:20:25.058Z,11.36
2018-12-06T20:22:53.721Z,11.31
2018-12-06T20:25:21.935Z,11.26
2018-12-06T20:27:50.724Z,11.26
2018-12-06T20:30:19.187Z,11.48
2018-12-06T20:32:47.365Z,11.37
2018-12-06T20:35:15.008Z,11.25
2018-12-06T20:37:42.651Z,11.17
2018-12-06T20:40:10.689Z,11.10
2018-12-06T20:42:38.314Z,11.13
2018-12-06T20:45:06.048Z,11.10
2018-12-06T20:47:33.768Z,11.09
2018-12-06T20:50:03.921Z,11.10
2018-12-06T20:52:31.713Z,11.10
2018-12-06T20:54:59.313Z,11.08
2018-12-06T20:57:26.894Z,11.10
2018-12-06T20:59:54.538Z,11.09
2018-12-06T21:02:22.072Z,11.09
2018-12-06T21:04:49.637Z,11.07
2018-12-06T21:07:17.173Z,11.06
2018-12-06T21:09:44.763Z,11.03
2018-12-06T21:12:12.307Z,11.08
2018-12-06T21:14:39.869Z,11.18
2018-12-06T21:17:09.061Z,11.19
2018-12-06T21:19:36.623Z,11.17
2018-12-06T21:22:04.570Z,11.20
2018-12-06T21:24:32.268Z,11.19
2018-12-06T21:26:59.775Z,11.10
2018-12-06T21:29:27.318Z,11.11
2018-12-06T21:31:54.899Z,11.16
2018-12-06T21:34:22.469Z,11.35
2018-12-06T21:36:49.986Z,11.45
2018-12-06T21:39:17.824Z,11.35
2018-12-06T21:41:49.055Z,11.29
2018-12-06T21:44:19.241Z,11.28
2018-12-06T21:46:48.952Z,11.27
2018-12-06T21:49:17.812Z,11.30
2018-12-06T21:51:45.445Z,11.26
2018-12-06T21:54:13.979Z,11.26
2018-12-06T21:56:42.961Z,11.29
2018-12-06T21:59:13.764Z,11.27
2018-12-06T22:01:50.170Z,11.25
2018-12-06T22:04:19.262Z,11.20
2018-12-06T22:06:48.284Z,11.16
2018-12-06T22:09:17.547Z,11.15
2018-12-06T22:11:45.157Z,11.15
2018-12-06T22:14:12.730Z,11.18
2018-12-06T22:16:40.251Z,11.20
2018-12-06T22:19:11.051Z,11.21
2018-12-06T22:21:40.275Z,11.24
2018-12-06T22:24:10.312Z,11.29
2018-12-06T22:26:38.538Z,11.30
2018-12-06T22:29:08.321Z,11.29
2018-12-06T22:31:39.339Z,11.35
2018-12-06T22:34:07.829Z,11.37
2018-12-06T22:36:36.607Z,11.37
2018-12-06T22:39:07.545Z,11.39
2018-12-06T22:41:35.808Z,11.27
2018-12-06T22:44:05.273Z,11.25
2018-12-06T22:46:32.948Z,11.20
2018-12-06T22:49:00.516Z,11.13
2018-12-06T22:51:29.870Z,11.16
2018-12-06T22:53:59.743Z,11.14
2018-12-06T22:56:29.474Z,11.04
2018-12-06T22:58:57.037Z,11.06
2018-12-06T23:01:31.380Z,11.07
2018-12-06T23:04:00.653Z,11.07
2018-12-06T23:06:32.499Z,11.13
2018-12-06T23:09:06.094Z,11.21
2018-12-06T23:11:36.739Z,11.26
2018-12-06T23:14:07.356Z,11.26
2018-12-06T23:16:38.716Z,11.33
2018-12-06T23:19:09.565Z,11.35
2018-12-06T23:21:41.365Z,11.37
2018-12-06T23:24:09.780Z,11.35
2018-12-06T23:26:37.507Z,11.37
2018-12-06T23:29:05.044Z,11.36
2018-12-06T23:31:32.612Z,11.33
2018-12-06T23:34:00.185Z,11.30
2018-12-06T23:36:29.307Z,11.29
2018-12-06T23:38:59.067Z,11.27
2018-12-06T23:41:26.792Z,11.29
2018-12-06T23:44:00.089Z,11.33
2018-12-06T23:46:31.346Z,11.32
2018-12-06T23:49:00.090Z,11.33
2018-12-06T23:51:36.517Z,11.30
2018-12-06T23:54:04.362Z,11.35
2018-12-06T23:56:34.118Z,11.35
2018-12-06T23:59:02.502Z,11.34
